Time;durP1;ratioP1;P1;durP2;ratioP2;P2;SDS_P1;SDS_P2;PMS_P1;PMS_P2;Temp;Humidity;BMP_temperature;BMP_pressure;BME280_temperature;BME280_humidity;BME280_pressure;Samples;Min_cycle;Max_cycle;Signal;HPM_P1;HPM_P2
2022/06/20 00:01:43;;;;;;;0.00;0.00;;;;;;;14.75;51.33;101577.72;7366366;19;20019;-62
2022/06/20 00:04:18;;;;;;;0.00;0.00;;;;;;;14.71;49.99;101573.44;7359362;19;20495;-61
2022/06/20 00:06:44;;;;;;;0.00;0.00;;;;;;;14.67;51.22;101574.41;7365848;19;20010;-61
2022/06/20 00:09:11;;;;;;;0.00;0.00;;;;;;;14.64;51.53;101592.88;7366183;19;20638;-62
2022/06/20 00:11:43;;;;;;;0.00;0.00;;;;;;;14.62;51.77;101597.31;7365545;19;20010;-62
2022/06/20 00:14:17;;;;;;;0.00;0.00;;;;;;;14.59;50.57;101597.38;7367825;19;20433;-61
2022/06/20 00:16:43;;;;;;;0.00;0.00;;;;;;;14.55;51.41;101593.13;7366771;19;20026;-62
2022/06/20 00:19:09;;;;;;;0.00;0.00;;;;;;;14.51;51.14;101583.59;7366485;19;21615;-61
2022/06/20 00:21:35;;;;;;;0.00;0.00;;;;;;;14.48;52.18;101583.66;7367015;19;20018;-62
2022/06/20 00:24:01;;;;;;;0.00;0.00;;;;;;;14.43;51.10;101581.09;7366451;19;20030;-61
2022/06/20 00:26:27;;;;;;;0.00;0.00;;;;;;;14.26;51.46;101563.13;7363280;19;20006;-62
2022/06/20 00:28:53;;;;;;;0.00;0.00;;;;;;;14.31;51.98;101573.53;7365771;19;20039;-62
2022/06/20 00:31:18;;;;;;;0.00;0.00;;;;;;;14.29;51.23;101570.06;7364084;19;20560;-62
2022/06/20 00:33:44;;;;;;;0.00;0.00;;;;;;;14.22;52.01;101563.25;7367191;19;22201;-61
2022/06/20 00:36:09;;;;;;;0.00;0.00;;;;;;;14.21;52.67;101564.16;7364743;19;20461;-60
2022/06/20 00:38:35;;;;;;;0.00;0.00;;;;;;;14.09;52.46;101540.78;7367438;19;20031;-62
2022/06/20 00:41:07;;;;;;;0.00;0.00;;;;;;;14.15;52.68;101557.28;7362933;19;20021;-61
2022/06/20 00:43:43;;;;;;;0.00;0.00;;;;;;;14.07;51.45;101540.81;7364380;19;20015;-62
2022/06/20 00:46:14;;;;;;;0.00;0.00;;;;;;;14.09;52.20;101554.81;7364001;19;20030;-62
2022/06/20 00:48:54;;;;;;;0.00;0.00;;;;;;;14.06;51.07;101557.50;7366688;19;20029;-62
2022/06/20 00:51:32;;;;;;;0.00;0.00;;;;;;;14.03;51.97;101555.78;7365620;19;20045;-62
2022/06/20 00:54:16;;;;;;;0.00;0.00;;;;;;;13.99;52.76;101562.03;7364222;19;20010;-62
2022/06/20 00:56:53;;;;;;;0.00;0.00;;;;;;;13.95;51.84;101568.25;7364900;19;20018;-61
2022/06/20 00:59:56;;;;;;;0.00;0.00;;;;;;;13.92;51.24;101572.69;7362949;19;20085;-62
2022/06/20 01:02:28;;;;;;;0.00;0.00;;;;;;;13.86;52.16;101568.44;7263357;19;2004403;-61
2022/06/20 01:05:01;;;;;;;0.00;0.00;;;;;;;13.76;52.58;101553.81;7365722;19;20022;-62
2022/06/20 01:07:35;;;;;;;0.00;0.00;;;;;;;13.77;52.41;101559.00;7365744;19;20396;-61
2022/06/20 01:10:04;;;;;;;0.00;0.00;;;;;;;13.74;52.60;101553.00;7365025;19;20015;-62
2022/06/20 01:12:37;;;;;;;0.00;0.00;;;;;;;13.70;53.58;101553.94;7364832;19;20018;-60
2022/06/20 01:15:26;;;;;;;0.00;0.00;;;;;;;13.66;52.49;101550.50;7363084;19;20101;-59
2022/06/20 01:17:52;;;;;;;0.00;0.00;;;;;;;13.59;53.46;101541.06;7363997;19;20018;-62
2022/06/20 01:20:29;;;;;;;0.00;0.00;;;;;;;13.58;52.67;101547.19;7365291;19;20030;-60
2022/06/20 01:23:16;;;;;;;0.00;0.00;;;;;;;13.55;53.01;101551.66;7364513;19;20389;-62
2022/06/20 01:25:51;;;;;;;;;;;;;;;13.50;50.98;101543.88;7365486;19;20014;-62
2022/06/20 01:28:21;;;;;;;0.00;0.00;;;;;;;13.45;52.68;101557.09;7364648;19;19929;-59
2022/06/20 01:30:47;;;;;;;0.00;0.00;;;;;;;13.31;53.74;101545.16;7366458;19;20021;-62
2022/06/20 01:33:16;;;;;;;0.00;0.00;;;;;;;13.35;54.33;101558.19;7363442;19;20014;-60
2022/06/20 01:38:28;;;;;;;0.00;0.00;;;;;;;13.22;54.45;101554.91;7364854;19;20021;-62
2022/06/20 01:43:38;;;;;;;0.00;0.00;;;;;;;13.09;55.22;101547.31;7363129;19;20042;-62
2022/06/20 01:46:09;;;;;;;0.00;0.00;;;;;;;13.10;54.75;101551.66;7365118;19;20006;-62
2022/06/20 01:48:38;;;;;;;0.00;0.00;;;;;;;13.05;55.42;101550.88;7360379;19;20014;-61
2022/06/20 01:51:08;;;;;;;0.00;0.00;;;;;;;13.01;55.43;101550.06;7364577;19;20017;-61
2022/06/20 01:53:34;;;;;;;0.00;0.00;;;;;;;12.99;55.83;101551.88;7362541;19;20011;-62
2022/06/20 01:56:02;;;;;;;0.00;0.00;;;;;;;12.98;55.88;101560.63;7362692;19;20013;-62
2022/06/20 01:58:53;;;;;;;;;;;;;;;12.96;51.53;101562.41;7353523;19;20010;-60
2022/06/20 02:01:18;;;;;;;0.00;0.00;;;;;;;12.89;55.48;101572.16;7254777;19;2004483;-62
2022/06/20 02:03:47;;;;;;;0.00;0.00;;;;;;;12.84;56.11;101571.38;7359793;19;20016;-63
2022/06/20 02:06:14;;;;;;;0.00;0.00;;;;;;;12.76;56.29;101567.16;7360907;19;20103;-60
2022/06/20 02:08:41;;;;;;;0.00;0.00;;;;;;;12.73;56.15;101566.31;7361713;19;20027;-61
2022/06/20 02:11:12;;;;;;;0.00;0.00;;;;;;;12.71;55.94;101572.47;7368659;19;21400;-62
2022/06/20 02:13:42;;;;;;;0.00;0.00;;;;;;;12.67;56.22;101569.06;7368290;19;20803;-61
2022/06/20 02:16:11;;;;;;;0.00;0.00;;;;;;;12.65;56.45;101573.44;7367443;19;21144;-60
2022/06/20 02:18:40;;;;;;;0.00;0.00;;;;;;;12.63;56.56;101574.38;7366535;19;20073;-62
2022/06/20 02:21:14;;;;;;;0.00;0.00;;;;;;;12.60;56.55;101558.69;7366787;19;20014;-62
2022/06/20 02:23:46;;;;;;;0.00;0.00;;;;;;;12.57;56.23;101550.88;7369394;19;20018;-62
2022/06/20 02:26:14;;;;;;;0.00;0.00;;;;;;;12.55;56.71;101547.44;7366172;19;20018;-60
2022/06/20 02:28:56;;;;;;;0.00;0.00;;;;;;;12.54;55.16;101540.47;7367584;19;20014;-61
2022/06/20 02:31:22;;;;;;;0.00;0.00;;;;;;;12.32;57.06;101514.66;7366407;19;20530;-60
2022/06/20 02:33:50;;;;;;;0.00;0.00;;;;;;;12.50;57.07;101539.66;7368130;19;21429;-61
2022/06/20 02:36:15;;;;;;;0.00;0.00;;;;;;;12.49;57.15;101550.16;7367476;19;20601;-62
2022/06/20 02:38:41;;;;;;;0.00;0.00;;;;;;;12.45;56.77;101541.47;7368023;19;20014;-61
2022/06/20 02:41:07;;;;;;;0.00;0.00;;;;;;;12.35;57.02;101526.81;7366724;19;20007;-62
2022/06/20 02:43:54;;;;;;;0.00;0.00;;;;;;;12.45;55.22;101539.72;7367797;19;20030;-62
2022/06/20 02:46:23;;;;;;;0.00;0.00;;;;;;;12.42;56.81;101538.94;7263184;19;2004635;-62
2022/06/20 02:48:51;;;;;;;0.00;0.00;;;;;;;12.38;57.07;101534.63;7366834;19;20046;-61
2022/06/20 02:51:20;;;;;;;0.00;0.00;;;;;;;12.37;57.10;101540.75;7367732;19;20109;-62
2022/06/20 02:54:07;;;;;;;0.00;0.00;;;;;;;12.35;55.20;101538.16;7368167;19;20030;-60
2022/06/20 02:56:38;;;;;;;0.00;0.00;;;;;;;12.33;57.42;101539.94;7368394;19;20116;-62
2022/06/20 02:59:11;;;;;;;0.00;0.00;;;;;;;12.31;57.14;101540.84;7366396;19;20100;-61
2022/06/20 03:01:54;;;;;;;0.00;0.00;;;;;;;12.28;57.20;101530.44;7368067;19;20003;-63
2022/06/20 03:04:22;;;;;;;0.00;0.00;;;;;;;12.16;57.28;101511.38;7355844;19;20115;-61
2022/06/20 03:06:56;;;;;;;0.00;0.00;;;;;;;12.26;56.93;101537.44;7366577;19;20768;-60
2022/06/20 03:09:27;;;;;;;0.00;0.00;;;;;;;12.20;56.94;101539.25;7367924;19;20015;-62
2022/06/20 03:11:53;;;;;;;0.00;0.00;;;;;;;12.19;57.88;101542.78;7359851;19;20021;-62
2022/06/20 03:14:23;;;;;;;0.00;0.00;;;;;;;12.17;57.29;101544.56;7365779;19;25629;-62
2022/06/20 03:16:49;;;;;;;0.00;0.00;;;;;;;12.12;58.05;101541.16;7363400;19;20751;-62
2022/06/20 03:19:22;;;;;;;0.00;0.00;;;;;;;12.08;57.87;101534.22;7362822;19;20006;-62
2022/06/20 03:21:48;;;;;;;0.00;0.00;;;;;;;12.03;58.00;101533.44;7362822;19;20466;-62
2022/06/20 03:24:18;;;;;;;0.00;0.00;;;;;;;12.00;58.20;101530.84;7365848;19;20819;-60
2022/06/20 03:26:44;;;;;;;0.00;0.00;;;;;;;11.95;58.65;101532.66;7368427;19;20035;-61
2022/06/20 03:29:14;;;;;;;0.00;0.00;;;;;;;11.94;57.89;101546.66;7367333;19;20731;-62
2022/06/20 03:31:39;;;;;;;0.00;0.00;;;;;;;11.88;58.66;101552.00;7367415;19;20031;-61
2022/06/20 03:34:05;;;;;;;0.00;0.00;;;;;;;11.84;58.90;101550.28;7366830;19;20054;-62
2022/06/20 03:36:30;;;;;;;0.00;0.00;;;;;;;11.81;58.58;101550.28;7365515;19;20741;-62
2022/06/20 03:38:56;;;;;;;0.00;0.00;;;;;;;11.78;58.91;101560.81;7367494;19;20014;-62
2022/06/20 03:41:25;;;;;;;0.00;0.00;;;;;;;11.75;58.77;101560.84;7365817;19;20014;-62
2022/06/20 03:43:56;;;;;;;0.00;0.00;;;;;;;11.73;59.18;101562.63;7367771;19;20015;-61
2022/06/20 03:46:28;;;;;;;0.00;0.00;;;;;;;11.69;58.98;101567.91;7367493;19;20010;-62
2022/06/20 03:49:22;;;;;;;0.00;0.00;;;;;;;11.67;58.22;101558.34;7367695;19;20042;-61
2022/06/20 03:51:54;;;;;;;0.00;0.00;;;;;;;11.63;58.92;101562.75;7265466;19;2004418;-61
2022/06/20 03:54:45;;;;;;;0.00;0.00;;;;;;;11.59;57.57;101576.75;7366681;19;20018;-62
2022/06/20 03:57:16;;;;;;;0.00;0.00;;;;;;;11.53;59.04;101569.00;7263916;19;2004516;-60
2022/06/20 03:59:52;;;;;;;0.00;0.00;;;;;;;11.47;59.31;101576.91;7366293;19;20647;-61
2022/06/20 04:02:24;;;;;;;0.00;0.00;;;;;;;11.54;59.95;101577.69;7366376;19;20022;-62
2022/06/20 04:05:04;;;;;;;0.00;0.00;;;;;;;11.49;59.09;101569.03;7368766;19;20006;-62
2022/06/20 04:07:34;;;;;;;0.00;0.00;;;;;;;11.51;58.98;101583.00;7363014;19;20017;-62
2022/06/20 04:13:12;;;;;;;0.00;0.00;;;;;;;11.44;58.70;101598.72;7264181;19;2004548;-62
2022/06/20 04:15:45;;;;;;;0.00;0.00;;;;;;;11.28;58.88;101575.41;7362412;19;20012;-62
2022/06/20 04:18:28;;;;;;;0.00;0.00;;;;;;;11.36;58.95;101600.59;7367334;19;20018;-61
2022/06/20 04:21:06;;;;;;;0.00;0.00;;;;;;;11.31;58.21;101601.53;7364868;19;20110;-61
2022/06/20 04:24:02;;;;;;;0.00;0.00;;;;;;;11.26;57.72;101604.19;7366220;19;20014;-63
2022/06/20 04:26:51;;;;;;;0.00;0.00;;;;;;;11.22;57.44;101601.63;7263449;19;2004361;-60
2022/06/20 04:29:17;;;;;;;0.00;0.00;;;;;;;11.16;59.55;101599.94;7264457;19;2004433;-63
2022/06/20 04:32:03;;;;;;;0.00;0.00;;;;;;;11.12;58.24;101612.19;7365486;19;20093;-62
2022/06/20 04:34:54;;;;;;;0.00;0.00;;;;;;;11.07;58.97;101611.34;7366201;19;20098;-62
2022/06/20 04:37:28;;;;;;;0.00;0.00;;;;;;;11.04;60.04;101613.13;7262262;19;2004317;-62
2022/06/20 04:40:05;;;;;;;0.00;0.00;;;;;;;11.01;60.46;101616.66;7365778;19;20037;-61
2022/06/20 04:42:41;;;;;;;0.00;0.00;;;;;;;11.00;60.19;101617.53;7363365;19;20050;-62
2022/06/20 04:45:25;;;;;;;0.00;0.00;;;;;;;10.98;60.49;101626.25;7367049;19;20010;-62
2022/06/20 04:48:12;;;;;;;0.00;0.00;;;;;;;10.99;58.43;101622.75;7364213;19;20011;-61
2022/06/20 04:50:40;;;;;;;;;;;;;;;10.98;55.99;101634.97;7365174;19;20074;-62
2022/06/20 04:53:10;;;;;;;0.00;0.00;;;;;;;10.96;60.73;101631.50;7363473;19;19939;-62
2022/06/20 04:55:40;;;;;;;0.00;0.00;;;;;;;10.84;61.01;101621.16;7366286;19;20094;-62
2022/06/20 04:58:11;;;;;;;0.00;0.00;;;;;;;10.96;60.73;101641.97;7363654;19;20022;-63
2022/06/20 05:00:42;;;;;;;0.00;0.00;;;;;;;10.96;60.73;101641.97;7366111;19;20044;-59
2022/06/20 05:03:11;;;;;;;0.00;0.00;;;;;;;10.92;61.19;101632.41;7363515;19;20070;-62
2022/06/20 05:05:41;;;;;;;0.00;0.00;;;;;;;10.90;60.73;101621.97;7364657;19;20022;-59
2022/06/20 05:08:13;;;;;;;0.00;0.00;;;;;;;11.02;61.18;101644.50;7362835;19;20514;-62
2022/06/20 05:10:48;;;;;;;0.00;0.00;;;;;;;11.04;60.70;101640.13;7365937;19;20031;-62
2022/06/20 05:13:38;;;;;;;0.00;0.00;;;;;;;11.05;60.82;101636.66;7363771;19;20583;-62
2022/06/20 05:16:06;;;;;;;0.00;0.00;;;;;;;11.05;61.66;101641.88;7360297;19;20007;-62
2022/06/20 05:18:42;;;;;;;0.00;0.00;;;;;;;11.09;60.47;101643.56;7364361;19;20007;-59
2022/06/20 05:21:12;;;;;;;0.00;0.00;;;;;;;11.03;62.17;101637.53;7364890;19;20014;-62
2022/06/20 05:23:44;;;;;;;0.00;0.00;;;;;;;11.14;61.18;101646.13;7363544;19;20020;-62
2022/06/20 05:26:17;;;;;;;0.08;0.08;;;;;;;11.17;61.26;101661.81;7364231;19;20780;-62
2022/06/20 05:28:46;;;;;;;0.00;0.00;;;;;;;11.21;62.04;101657.41;7365449;19;20022;-60
2022/06/20 05:31:15;;;;;;;0.00;0.00;;;;;;;11.23;62.18;101660.88;7363950;19;20017;-62
2022/06/20 05:33:58;;;;;;;0.00;0.00;;;;;;;11.15;60.83;101633.06;7364873;19;20579;-62
2022/06/20 05:36:27;;;;;;;0.00;0.00;;;;;;;11.29;62.52;101660.81;7365222;19;20517;-62
2022/06/20 05:38:59;;;;;;;0.00;0.00;;;;;;;11.33;62.49;101652.91;7365629;19;20089;-63
2022/06/20 05:41:24;;;;;;;0.00;0.00;;;;;;;11.31;62.80;101648.59;7365378;19;20003;-60
2022/06/20 05:43:50;;;;;;;0.00;0.00;;;;;;;11.41;62.67;101658.94;7363570;19;20078;-58
2022/06/20 05:46:27;;;;;;;0.00;0.00;;;;;;;11.48;62.49;101651.88;7370493;19;20018;-62
2022/06/20 05:48:59;;;;;;;0.00;0.00;;;;;;;11.53;62.75;101657.94;7367218;19;20010;-62
2022/06/20 05:51:27;;;;;;;0.00;0.00;;;;;;;11.56;62.50;101664.88;7372514;19;20019;-62
2022/06/20 05:54:05;;;;;;;0.00;0.00;;;;;;;11.61;60.95;101663.94;7370765;19;20018;-62
2022/06/20 05:56:44;;;;;;;0.00;0.00;;;;;;;11.67;61.42;101670.84;7367006;19;20044;-62
2022/06/20 05:59:25;;;;;;;0.00;0.00;;;;;;;11.74;61.51;101676.88;7364777;19;20045;-62
2022/06/20 06:01:52;;;;;;;0.00;0.00;;;;;;;11.76;63.18;101675.09;7368449;19;20017;-61
2022/06/20 06:04:31;;;;;;;0.00;0.00;;;;;;;11.83;62.25;101668.94;7369186;19;20021;-62
2022/06/20 06:07:01;;;;;;;0.10;0.10;;;;;;;11.87;62.64;101676.75;7369530;19;20028;-62
2022/06/20 06:10:04;;;;;;;0.00;0.00;;;;;;;11.90;61.11;101654.91;7369994;19;20015;-63
2022/06/20 06:12:37;;;;;;;0.00;0.00;;;;;;;12.01;62.59;101673.94;7266830;19;2004525;-62
2022/06/20 06:15:36;;;;;;;0.00;0.00;;;;;;;12.10;60.80;101672.97;7367185;19;20002;-62
2022/06/20 06:18:08;;;;;;;0.00;0.00;;;;;;;12.13;62.64;101679.03;7263766;19;2004107;-62
2022/06/20 06:20:36;;;;;;;0.00;0.00;;;;;;;12.19;63.22;101686.78;7368589;19;20014;-61
2022/06/20 06:23:08;;;;;;;0.00;0.00;;;;;;;12.28;62.97;101687.56;7367223;19;20014;-60
2022/06/20 06:25:41;;;;;;;0.00;0.00;;;;;;;12.26;62.68;101671.00;7368789;19;20018;-62
2022/06/20 06:28:20;;;;;;;0.00;0.00;;;;;;;12.41;61.97;101689.09;7367217;19;20010;-61
2022/06/20 06:30:52;;;;;;;0.00;0.00;;;;;;;12.48;63.30;101690.75;7367825;19;20098;-59
2022/06/20 06:33:34;;;;;;;0.00;0.00;;;;;;;12.52;62.30;101692.47;7366141;19;20021;-62
2022/06/20 06:36:06;;;;;;;0.00;0.00;;;;;;;12.63;62.92;101700.16;7364513;19;20035;-62
2022/06/20 06:38:40;;;;;;;0.00;0.00;;;;;;;12.70;62.38;101704.41;7367200;19;20021;-62
2022/06/20 06:41:14;;;;;;;0.00;0.00;;;;;;;12.76;62.47;101692.94;7369660;19;20024;-62
2022/06/20 06:43:44;;;;;;;0.00;0.00;;;;;;;12.82;62.73;101691.09;7365773;19;20018;-62
2022/06/20 06:46:17;;;;;;;0.00;0.00;;;;;;;12.88;63.09;101698.88;7367911;19;20756;-62
2022/06/20 06:48:52;;;;;;;0.00;0.00;;;;;;;12.94;63.02;101703.16;7365233;19;22506;-62
2022/06/20 06:51:32;;;;;;;0.00;0.00;;;;;;;13.02;63.01;101714.34;7364501;19;20038;-61
2022/06/20 06:54:16;;;;;;;0.00;0.00;;;;;;;13.12;61.88;101707.22;7365030;19;20030;-60
2022/06/20 06:56:48;;;;;;;0.00;0.00;;;;;;;13.18;63.38;101710.59;7358037;19;20014;-58
2022/06/20 06:59:53;;;;;;;0.00;0.00;;;;;;;13.33;60.59;101716.47;7362484;19;20609;-62
2022/06/20 07:02:25;;;;;;;0.00;0.00;;;;;;;13.40;63.45;101720.75;7260021;19;2004341;-61
2022/06/20 07:04:56;;;;;;;0.00;0.00;;;;;;;13.48;63.66;101724.06;7366313;19;20011;-55
2022/06/20 07:07:37;;;;;;;0.00;0.00;;;;;;;13.62;62.12;101715.97;7366919;19;20473;-62
2022/06/20 07:10:07;;;;;;;0.00;0.00;;;;;;;13.67;63.31;101704.47;7366994;19;20038;-61
2022/06/20 07:13:02;;;;;;;0.00;0.00;;;;;;;13.77;63.36;101715.66;7366269;19;20006;-62
2022/06/20 07:15:29;;;;;;;0.00;0.00;;;;;;;13.88;62.86;101710.19;7263149;19;2004505;-61
2022/06/20 07:17:56;;;;;;;0.00;0.00;;;;;;;13.97;62.79;101715.25;7365897;19;20106;-62
2022/06/20 07:20:26;;;;;;;0.00;0.00;;;;;;;14.05;62.67;101712.50;7366697;19;20026;-61
2022/06/20 07:22:52;;;;;;;0.00;0.00;;;;;;;14.13;62.62;101708.78;7362052;19;20038;-60
2022/06/20 07:25:24;;;;;;;0.00;0.00;;;;;;;14.21;62.79;101706.88;7362000;19;20656;-61
2022/06/20 07:28:29;;;;;;;0.00;0.00;;;;;;;14.35;61.13;101708.34;7364311;19;20032;-62
2022/06/20 07:31:02;;;;;;;0.00;0.00;;;;;;;14.41;62.34;101698.56;7263128;19;2004296;-62
2022/06/20 07:33:38;;;;;;;0.00;0.00;;;;;;;14.53;61.65;101697.44;7365120;19;20024;-61
2022/06/20 07:36:08;;;;;;;0.00;0.00;;;;;;;14.62;61.85;101691.09;7364140;19;20019;-62
2022/06/20 07:38:43;;;;;;;0.00;0.00;;;;;;;14.65;62.00;101691.91;7365642;19;20505;-62
2022/06/20 07:41:17;;;;;;;0.00;0.00;;;;;;;14.73;61.58;101695.19;7362872;19;20015;-62
2022/06/20 07:43:52;;;;;;;0.00;0.00;;;;;;;14.81;61.67;101696.78;7364099;19;20002;-63
2022/06/20 07:46:31;;;;;;;0.00;0.00;;;;;;;14.92;61.33;101684.22;7361594;19;20014;-63
2022/06/20 07:49:00;;;;;;;0.00;0.00;;;;;;;14.96;61.53;101685.88;7361747;19;20042;-63
2022/06/20 07:51:34;;;;;;;0.00;0.00;;;;;;;15.06;60.75;101687.38;7362275;19;20010;-62
2022/06/20 07:54:18;;;;;;;0.00;0.00;;;;;;;15.16;60.62;101694.13;7361968;19;20014;-62
2022/06/20 07:56:50;;;;;;;0.00;0.00;;;;;;;15.22;61.23;101693.97;7361856;19;20013;-62
2022/06/20 07:59:34;;;;;;;0.00;0.00;;;;;;;15.35;59.99;101693.63;7360926;19;20022;-63
2022/06/20 08:02:04;;;;;;;0.00;0.00;;;;;;;15.43;60.46;101703.06;7363955;19;20002;-60
2022/06/20 08:04:33;;;;;;;0.08;0.08;;;;;;;15.50;60.58;101698.50;7362604;19;20010;-61
2022/06/20 08:07:13;;;;;;;0.00;0.00;;;;;;;15.62;59.29;101687.63;7364044;19;20541;-57
2022/06/20 08:09:47;;;;;;;0.00;0.00;;;;;;;15.67;59.68;101677.88;7365220;19;20018;-62
2022/06/20 08:12:28;;;;;;;0.00;0.00;;;;;;;15.71;59.65;101674.25;7364814;19;20020;-63
2022/06/20 08:15:02;;;;;;;0.00;0.00;;;;;;;15.73;59.71;101661.88;7365406;19;20007;-62
2022/06/20 08:17:29;;;;;;;0.00;0.00;;;;;;;15.86;59.00;101677.31;7362917;19;20753;-60
2022/06/20 08:19:57;;;;;;;0.00;0.00;;;;;;;15.96;58.10;101677.00;7355037;19;20025;-61
2022/06/20 08:22:31;;;;;;;0.00;0.00;;;;;;;16.07;58.33;101676.72;7365440;19;20037;-62
2022/06/20 08:25:21;;;;;;;0.00;0.00;;;;;;;16.14;57.64;101675.63;7363845;19;20022;-61
2022/06/20 08:27:56;;;;;;;0.00;0.00;;;;;;;16.18;57.25;101671.13;7365873;19;20018;-61
2022/06/20 08:30:24;;;;;;;0.00;0.00;;;;;;;16.23;57.81;101664.78;7364880;19;20011;-59
2022/06/20 08:32:58;;;;;;;0.00;0.00;;;;;;;16.25;57.90;101660.31;7362078;19;20006;-63
2022/06/20 08:35:23;;;;;;;0.00;0.00;;;;;;;16.31;57.63;101657.50;7361598;19;20007;-63
2022/06/20 08:38:03;;;;;;;0.00;0.00;;;;;;;16.46;56.95;101660.56;7366015;19;21677;-63
2022/06/20 08:40:41;;;;;;;0.00;0.00;;;;;;;16.53;56.75;101667.38;7365970;19;20117;-63
2022/06/20 08:43:06;;;;;;;;;;;;;;;16.61;56.19;101662.72;7364818;19;20049;-63
2022/06/20 08:46:08;;;;;;;0.00;0.00;;;;;;;16.67;56.00;101667.78;7366630;19;22448;-63
2022/06/20 08:49:01;;;;;;;0.00;0.00;;;;;;;16.72;55.78;101663.25;7261766;19;2004386;-63
2022/06/20 08:52:11;;;;;;;0.00;0.00;;;;;;;16.80;55.75;101655.97;7264278;19;2004662;-63
2022/06/20 08:54:42;;;;;;;0.00;0.00;;;;;;;16.84;55.81;101657.59;7259618;19;2004451;-62
2022/06/20 08:57:29;;;;;;;0.00;0.00;;;;;;;16.94;55.44;101663.41;7364269;19;20036;-62
2022/06/20 09:00:09;;;;;;;0.00;0.00;;;;;;;17.02;55.75;101671.06;7366509;19;20038;-63
2022/06/20 09:03:12;;;;;;;0.00;0.00;;;;;;;17.11;55.09;101668.97;7363330;19;20031;-63
2022/06/20 09:05:52;;;;;;;0.10;0.10;;;;;;;17.17;55.20;101683.72;7263669;19;2004227;-62
2022/06/20 09:08:45;;;;;;;0.00;0.00;;;;;;;17.25;54.87;101679.06;7363760;19;20025;-61
2022/06/20 09:11:27;;;;;;;0.00;0.00;;;;;;;17.35;54.84;101684.88;7262639;19;2004591;-60
2022/06/20 09:14:04;;;;;;;0.00;0.00;;;;;;;17.43;55.29;101676.66;7363667;19;20561;-60
2022/06/20 09:16:32;;;;;;;0.00;0.00;;;;;;;17.47;55.24;101673.00;7365484;19;20014;-62
2022/06/20 09:19:39;;;;;;;0.00;0.00;;;;;;;17.64;54.66;101670.63;7357609;19;20010;-60
2022/06/20 09:22:42;;;;;;;0.00;0.00;;;;;;;17.77;54.70;101677.22;7261734;19;2004097;-63
2022/06/20 09:25:21;;;;;;;0.00;0.00;;;;;;;17.81;54.49;101657.69;7257887;19;2004260;-63
2022/06/20 09:28:08;;;;;;;0.00;0.00;;;;;;;18.01;54.38;101674.56;7363916;19;20647;-63
2022/06/20 09:30:50;;;;;;;0.10;0.10;;;;;;;18.10;54.33;101675.09;7365643;19;20748;-64
2022/06/20 09:33:35;;;;;;;0.00;0.00;;;;;;;18.25;53.61;101667.44;7363585;19;20041;-60
2022/06/20 09:36:19;;;;;;;0.00;0.00;;;;;;;18.42;53.38;101659.72;7363880;19;20010;-63
2022/06/20 09:39:08;;;;;;;0.00;0.00;;;;;;;18.79;53.19;101653.81;7363992;19;20112;-62
2022/06/20 09:41:47;;;;;;;0.03;0.03;;;;;;;19.06;52.42;101650.91;7360358;19;20007;-62
2022/06/20 09:44:48;;;;;;;0.00;0.00;;;;;;;19.45;52.65;101648.31;7363918;19;20013;-60
2022/06/20 09:47:35;;;;;;;0.00;0.00;;;;;;;19.85;51.20;101652.72;7261057;19;2004195;-60
2022/06/20 09:50:19;;;;;;;;;;;;;;;20.34;52.18;101647.75;7365811;19;20018;-62
2022/06/20 09:52:47;;;;;;;0.10;0.10;;;;;;;20.67;49.81;101639.06;7361337;19;20699;-63
2022/06/20 09:55:43;;;;;;;0.10;0.10;;;;;;;21.14;51.30;101641.13;7364289;19;20857;-63
2022/06/20 09:58:27;;;;;;;0.00;0.00;;;;;;;21.60;50.20;101652.03;7250957;19;2004482;-61
2022/06/20 10:01:17;;;;;;;0.00;0.00;;;;;;;22.01;48.57;101647.94;7364025;19;20470;-62
2022/06/20 10:04:00;;;;;;;0.00;0.00;;;;;;;22.36;47.20;101634.50;7355744;19;20029;-58
2022/06/20 10:06:31;;;;;;;0.00;0.00;;;;;;;22.70;46.26;101632.53;7363121;19;20010;-61
2022/06/20 10:09:14;;;;;;;0.00;0.00;;;;;;;23.15;46.82;101634.28;7363224;19;20011;-61
2022/06/20 10:12:13;;;;;;;0.00;0.00;;;;;;;23.72;47.93;101641.47;7363980;19;20003;-62
2022/06/20 10:14:56;;;;;;;0.00;0.00;;;;;;;24.28;45.75;101636.97;7261518;19;2004245;-62
2022/06/20 10:17:53;;;;;;;0.08;0.08;;;;;;;24.69;44.75;101630.75;7361927;19;20454;-61
2022/06/20 10:23:58;;;;;;;0.00;0.00;;;;;;;25.55;44.03;101637.25;7313194;19;19910;-62
2022/06/20 10:26:42;;;;;;;0.10;0.10;;;;;;;26.07;42.35;101640.69;7254504;19;2004414;-63
2022/06/20 10:29:25;;;;;;;0.00;0.00;;;;;;;26.35;40.69;101626.97;7362432;19;20014;-63
2022/06/20 10:32:08;;;;;;;0.10;0.10;;;;;;;26.73;40.05;101623.28;7367552;19;20038;-63
2022/06/20 10:34:42;;;;;;;0.00;0.00;;;;;;;27.07;39.54;101628.72;7369884;19;20010;-62
2022/06/20 10:37:41;;;;;;;0.10;0.10;;;;;;;27.50;41.49;101626.22;7370709;19;20399;-62
2022/06/20 10:40:55;;;;;;;0.10;0.10;;;;;;;27.79;40.19;101628.44;7265506;19;2004036;-61
2022/06/20 10:43:40;;;;;;;0.00;0.00;;;;;;;28.08;38.17;101621.56;7264104;19;2004479;-63
2022/06/20 10:46:23;;;;;;;0.00;0.00;;;;;;;28.38;35.69;101617.31;7370647;19;20003;-63
2022/06/20 10:49:15;;;;;;;0.00;0.00;;;;;;;28.68;37.91;101620.13;7368815;19;20532;-63
2022/06/20 10:52:11;;;;;;;0.10;0.10;;;;;;;28.88;37.16;101617.56;7267115;19;2004380;-63
2022/06/20 10:55:15;;;;;;;0.10;0.10;;;;;;;29.23;38.31;101624.47;7265220;19;2004588;-61
2022/06/20 10:58:02;;;;;;;0.10;0.10;;;;;;;29.45;35.52;101625.16;7264339;19;2004317;-60
2022/06/20 11:00:34;;;;;;;0.10;0.10;;;;;;;29.84;34.90;101619.06;7369138;19;21074;-62
2022/06/20 11:03:02;;;;;;;0.00;0.00;;;;;;;30.19;33.54;101614.06;7367994;19;20778;-63
2022/06/20 11:05:34;;;;;;;0.10;0.10;;;;;;;30.64;34.51;101601.88;7366733;19;20018;-62
2022/06/20 11:08:26;;;;;;;0.00;0.00;;;;;;;31.16;35.92;101608.59;7368272;19;20725;-62
2022/06/20 11:11:03;;;;;;;0.00;0.00;;;;;;;31.58;33.13;101605.50;7362945;19;20014;-63
2022/06/20 11:13:40;;;;;;;0.00;0.00;;;;;;;32.14;33.03;101609.88;7371228;19;20022;-61
2022/06/20 11:16:26;;;;;;;0.00;0.00;;;;;;;32.65;34.13;101600.22;7371016;19;20010;-63
2022/06/20 11:19:04;;;;;;;0.00;0.00;;;;;;;33.10;30.93;101593.78;7367044;19;20006;-63
2022/06/20 11:21:32;;;;;;;0.10;0.10;;;;;;;33.52;30.28;101601.13;7365134;19;20013;-60
2022/06/20 11:24:48;;;;;;;0.10;0.10;;;;;;;34.19;31.67;101590.31;7345692;19;20018;-62
2022/06/20 11:27:23;;;;;;;0.00;0.00;;;;;;;34.68;27.82;101599.34;7161015;19;2005860;-64
2022/06/20 11:30:12;;;;;;;0.00;0.00;;;;;;;35.23;29.78;101601.31;7361638;19;20132;-64
2022/06/20 11:33:01;;;;;;;0.10;0.10;;;;;;;35.54;27.06;101584.25;7342468;19;20728;-62
2022/06/20 11:35:32;;;;;;;0.10;0.10;;;;;;;35.86;25.48;101584.03;7368051;19;20010;-61
2022/06/20 11:38:39;;;;;;;0.00;0.00;;;;;;;36.21;28.15;101581.81;7367268;19;20014;-63
2022/06/20 11:41:22;;;;;;;0.00;0.00;;;;;;;36.28;24.96;101582.75;7264546;19;2004791;-62
2022/06/20 11:44:09;;;;;;;0.00;0.00;;;;;;;36.44;25.03;101580.97;7367486;19;20018;-64
2022/06/20 11:46:56;;;;;;;0.10;0.10;;;;;;;36.83;27.75;101576.16;7368593;19;20015;-62
2022/06/20 11:49:27;;;;;;;0.10;0.10;;;;;;;36.89;24.08;101570.00;7366220;19;20582;-62
2022/06/20 11:52:16;;;;;;;0.10;0.10;;;;;;;37.44;26.27;101567.00;7367552;19;20029;-63
2022/06/20 11:55:04;;;;;;;0.00;0.00;;;;;;;37.82;25.58;101568.50;7366369;19;20048;-63
2022/06/20 11:57:45;;;;;;;0.10;0.10;;;;;;;38.15;24.11;101573.47;7365433;19;20014;-64
2022/06/20 12:00:27;;;;;;;0.00;0.00;;;;;;;38.50;23.89;101565.41;7367141;19;20034;-63
2022/06/20 12:03:14;;;;;;;0.10;0.10;;;;;;;38.92;23.96;101567.19;7364960;19;20086;-63
2022/06/20 12:05:54;;;;;;;0.10;0.10;;;;;;;39.17;22.64;101564.81;7366322;19;20014;-62
2022/06/20 12:08:25;;;;;;;0.10;0.10;;;;;;;39.48;20.67;101550.69;7345896;19;20021;-62
2022/06/20 12:11:05;;;;;;;0.10;0.10;;;;;;;39.81;22.44;101552.72;7362932;19;20013;-63
2022/06/20 12:13:56;;;;;;;0.10;0.10;;;;;;;40.09;23.58;101552.56;7363106;19;20130;-62
2022/06/20 12:16:59;;;;;;;0.10;0.10;;;;;;;40.41;23.39;101543.53;7260268;19;2004531;-62
2022/06/20 12:25:42;;;;;;;0.10;0.10;;;;;;;40.89;21.89;101521.34;7363410;19;20032;-60
2022/06/20 12:28:20;;;;;;;0.10;0.10;;;;;;;41.09;21.50;101523.19;7362903;19;20006;-63